Time;durP1;ratioP1;P1;durP2;ratioP2;P2;SDS_P1;SDS_P2;PMS_P1;PMS_P2;Temp;Humidity;BMP_temperature;BMP_pressure;BME280_temperature;BME280_humidity;BME280_pressure;Samples;Min_cycle;Max_cycle;Signal;HPM_P1;HPM_P2
2023/09/26 00:02:22;;;;;;;4.15;3.55;;;15.90;99.90;;;;;;5094337;28;20078;-51
2023/09/26 00:04:48;;;;;;;5.60;3.95;;;15.90;99.90;;;;;;5094418;28;20075;-50
2023/09/26 00:07:14;;;;;;;6.03;4.20;;;16.00;99.90;;;;;;5094052;28;20072;-48
2023/09/26 00:09:39;;;;;;;7.00;3.97;;;16.00;99.90;;;;;;5094064;28;20079;-47
2023/09/26 00:12:05;;;;;;;3.80;3.35;;;16.00;99.90;;;;;;5094043;28;20477;-47
2023/09/26 00:14:30;;;;;;;5.13;3.83;;;16.00;99.90;;;;;;5094294;28;20040;-51
2023/09/26 00:16:57;;;;;;;6.63;3.92;;;15.90;99.90;;;;;;5092734;28;20036;-49
2023/09/26 00:19:22;;;;;;;6.88;3.80;;;15.90;99.90;;;;;;5094113;28;20036;-48
2023/09/26 00:21:49;;;;;;;9.82;4.10;;;15.90;99.90;;;;;;5093739;28;20048;-49
2023/09/26 00:24:15;;;;;;;4.97;3.53;;;15.80;99.90;;;;;;5094011;28;20111;-50
2023/09/26 00:26:41;;;;;;;5.15;3.58;;;15.90;99.90;;;;;;5093824;28;20119;-48
2023/09/26 00:29:07;;;;;;;8.07;4.00;;;15.80;99.90;;;;;;5094014;28;20039;-49
2023/09/26 00:31:32;;;;;;;5.68;3.72;;;15.80;99.90;;;;;;5092787;28;20063;-51
2023/09/26 00:33:58;;;;;;;7.85;3.40;;;15.80;99.90;;;;;;5093748;28;20040;-48
2023/09/26 00:36:24;;;;;;;4.75;3.75;;;15.90;99.90;;;;;;5093780;28;20028;-48
2023/09/26 00:38:50;;;;;;;6.72;4.10;;;15.80;99.90;;;;;;5093864;28;20127;-52
2023/09/26 00:41:15;;;;;;;5.70;4.18;;;15.70;99.90;;;;;;5093803;28;20568;-52
2023/09/26 00:43:41;;;;;;;5.70;3.72;;;15.70;99.90;;;;;;5093727;28;20108;-50
2023/09/26 00:46:10;;;;;;;4.18;3.78;;;15.70;99.90;;;;;;5093704;28;20055;-50
2023/09/26 00:48:35;;;;;;;;;;;15.70;99.90;;;;;;5093840;28;20562;-48
2023/09/26 00:51:02;;;;;;;4.95;3.75;;;15.60;99.90;;;;;;5085170;28;19924;-48
2023/09/26 00:53:29;;;;;;;5.85;3.80;;;15.60;99.90;;;;;;5093304;28;20077;-48
2023/09/26 00:55:57;;;;;;;7.38;4.18;;;15.70;99.90;;;;;;5093429;28;20036;-51
2023/09/26 00:58:25;;;;;;;4.93;3.65;;;15.60;99.90;;;;;;5093502;28;20060;-48
2023/09/26 01:00:53;;;;;;;6.00;3.80;;;15.50;99.90;;;;;;5093473;28;20085;-52
2023/09/26 01:03:19;;;;;;;5.90;3.97;;;15.40;99.90;;;;;;5093540;28;20040;-52
2023/09/26 01:05:44;;;;;;;7.13;3.92;;;15.50;99.90;;;;;;5093171;28;20435;-51
2023/09/26 01:08:10;;;;;;;5.25;4.13;;;15.50;99.90;;;;;;5093145;28;20071;-52
2023/09/26 01:10:37;;;;;;;4.30;3.67;;;15.40;99.90;;;;;;5092915;28;20493;-50
2023/09/26 01:13:03;;;;;;;4.85;4.07;;;15.40;99.90;;;;;;5084166;28;20032;-50
2023/09/26 01:15:40;;;;;;;6.70;4.03;;;15.30;99.90;;;;;;5088494;28;20386;-51
2023/09/26 01:18:10;;;;;;;4.75;3.78;;;15.20;99.90;;;;;;5072608;28;20070;-50
2023/09/26 01:20:43;;;;;;;4.18;3.40;;;15.20;99.90;;;;;;5072381;28;20387;-51
2023/09/26 01:23:13;;;;;;;5.68;3.28;;;15.20;99.90;;;;;;5072718;28;20041;-51
2023/09/26 01:25:42;;;;;;;6.43;3.35;;;15.20;99.90;;;;;;5072679;28;20037;-49
2023/09/26 01:28:10;;;;;;;4.13;3.58;;;15.10;99.90;;;;;;5072721;28;20036;-50
2023/09/26 01:30:39;;;;;;;6.50;3.90;;;15.10;99.90;;;;;;5073142;28;20158;-51
2023/09/26 01:33:16;;;;;;;5.03;3.10;;;15.00;99.90;;;;;;5072331;28;20041;-51
2023/09/26 01:35:43;;;;;;;6.07;4.20;;;15.10;99.90;;;;;;5072380;28;20115;-52
2023/09/26 01:38:09;;;;;;;4.78;3.78;;;15.00;99.90;;;;;;5072264;28;20040;-52
2023/09/26 01:40:34;;;;;;;7.55;4.10;;;15.00;99.90;;;;;;5072502;28;20090;-50
2023/09/26 01:43:00;;;;;;;5.35;3.80;;;15.00;99.90;;;;;;5071792;28;20291;-50
2023/09/26 01:45:26;;;;;;;7.20;3.90;;;15.00;99.90;;;;;;5071910;28;20032;-51
2023/09/26 01:47:52;;;;;;;6.97;3.15;;;15.00;99.90;;;;;;5074300;28;20028;-47
2023/09/26 01:50:20;;;;;;;6.18;4.07;;;14.90;99.90;;;;;;5087606;28;20043;-49
2023/09/26 01:52:46;;;;;;;5.17;3.80;;;14.80;99.90;;;;;;5079375;28;20097;-49
2023/09/26 01:55:20;;;;;;;6.75;4.20;;;14.90;99.90;;;;;;5092227;28;20266;-51
2023/09/26 01:57:45;;;;;;;4.57;3.90;;;14.80;99.90;;;;;;5064314;28;20039;-50
2023/09/26 02:00:12;;;;;;;6.38;4.32;;;14.70;99.90;;;;;;5092018;28;20035;-51
2023/09/26 02:02:39;;;;;;;5.68;3.60;;;14.70;99.90;;;;;;5092065;28;20042;-48
2023/09/26 02:05:06;;;;;;;4.90;4.00;;;14.70;99.90;;;;;;5092393;28;20032;-49
2023/09/26 02:07:32;;;;;;;6.50;3.60;;;14.60;99.90;;;;;;5091991;28;20425;-50
2023/09/26 02:09:58;;;;;;;6.18;4.20;;;14.60;99.90;;;;;;5092003;28;20032;-51
2023/09/26 02:12:23;;;;;;;7.75;4.50;;;14.60;99.90;;;;;;5088895;28;20066;-48
2023/09/26 02:14:50;;;;;;;6.05;3.70;;;14.60;99.90;;;;;;5078667;28;20048;-49
2023/09/26 02:17:15;;;;;;;4.78;4.13;;;14.50;99.90;;;;;;5090159;28;20032;-49
2023/09/26 02:19:41;;;;;;;5.70;4.18;;;14.50;99.90;;;;;;5090424;28;20092;-50
2023/09/26 02:22:07;;;;;;;4.57;4.18;;;14.50;99.90;;;;;;5091749;28;20094;-49
2023/09/26 02:24:33;;;;;;;5.15;3.67;;;14.50;99.90;;;;;;5087526;28;20094;-50
2023/09/26 02:26:58;;;;;;;5.50;4.22;;;14.40;99.90;;;;;;5071611;28;20041;-47
2023/09/26 02:29:24;;;;;;;5.50;3.80;;;14.50;99.90;;;;;;5071605;28;20048;-49
2023/09/26 02:31:50;;;;;;;5.03;3.90;;;14.40;99.90;;;;;;5071837;28;20032;-48
2023/09/26 02:34:15;;;;;;;7.53;4.03;;;14.40;99.90;;;;;;5090792;28;20043;-48
2023/09/26 02:36:41;;;;;;;6.05;4.50;;;14.30;99.90;;;;;;5091552;28;20043;-49
2023/09/26 02:39:06;;;;;;;7.20;4.53;;;14.40;99.90;;;;;;5091760;28;20036;-46
2023/09/26 02:41:32;;;;;;;7.20;4.70;;;14.40;99.90;;;;;;5091420;28;20046;-48
2023/09/26 02:43:59;;;;;;;5.68;4.10;;;14.40;99.90;;;;;;5083494;28;20466;-50
2023/09/26 02:46:24;;;;;;;8.05;4.32;;;14.40;99.90;;;;;;5091459;28;20146;-49
2023/09/26 02:48:50;;;;;;;7.07;4.30;;;14.40;99.90;;;;;;5084847;28;20546;-49
2023/09/26 02:51:15;;;;;;;7.68;4.50;;;14.30;99.90;;;;;;5091760;28;20036;-47
2023/09/26 02:53:41;;;;;;;6.03;4.30;;;14.40;99.90;;;;;;5091501;28;20482;-48
2023/09/26 02:56:10;;;;;;;6.10;4.20;;;14.30;99.90;;;;;;5094799;28;20386;-47
2023/09/26 02:58:36;;;;;;;;;;;14.30;99.90;;;;;;5096220;28;20103;-47
2023/09/26 03:01:03;;;;;;;8.60;4.88;;;14.30;99.90;;;;;;5095730;28;19916;-49
2023/09/26 03:03:29;;;;;;;5.60;4.40;;;14.30;99.90;;;;;;5095596;28;20036;-49
2023/09/26 03:05:55;;;;;;;6.68;4.80;;;14.30;99.90;;;;;;5095674;28;20386;-47
2023/09/26 03:08:21;;;;;;;8.45;4.93;;;14.30;99.90;;;;;;5095294;28;20044;-51
2023/09/26 03:10:47;;;;;;;6.90;4.55;;;14.30;99.90;;;;;;5095457;28;20593;-49
2023/09/26 03:13:13;;;;;;;4.82;4.28;;;14.30;99.90;;;;;;5088768;28;20111;-51
2023/09/26 03:15:39;;;;;;;5.85;4.68;;;14.20;99.90;;;;;;5095242;28;20044;-50
2023/09/26 03:18:05;;;;;;;5.55;4.60;;;14.20;99.90;;;;;;5088279;28;20090;-46
2023/09/26 03:20:31;;;;;;;7.32;4.63;;;14.20;99.90;;;;;;5094022;28;20105;-48
2023/09/26 03:22:57;;;;;;;9.55;5.20;;;14.20;99.90;;;;;;5088742;28;20449;-46
2023/09/26 03:25:23;;;;;;;9.65;5.18;;;14.10;99.90;;;;;;5082654;28;20136;-50
2023/09/26 03:27:51;;;;;;;9.57;4.93;;;14.10;99.90;;;;;;5074810;28;20423;-49
2023/09/26 03:30:17;;;;;;;5.07;4.35;;;14.10;99.90;;;;;;5074905;28;20525;-49
2023/09/26 03:32:43;;;;;;;10.38;5.57;;;14.10;99.90;;;;;;5074607;28;20072;-48
2023/09/26 03:35:09;;;;;;;8.00;5.78;;;14.10;99.90;;;;;;5074646;28;20067;-49
2023/09/26 03:37:36;;;;;;;10.00;6.22;;;14.10;99.90;;;;;;5074611;28;20064;-48
2023/09/26 03:40:02;;;;;;;7.30;5.63;;;14.10;99.90;;;;;;5074357;28;20039;-51
2023/09/26 03:42:27;;;;;;;9.98;5.35;;;14.10;99.90;;;;;;5074495;28;20036;-49
2023/09/26 03:44:53;;;;;;;7.90;5.95;;;14.10;99.90;;;;;;5074667;28;20033;-49
2023/09/26 03:47:19;;;;;;;7.78;5.70;;;14.10;99.90;;;;;;5074451;28;20451;-48
2023/09/26 03:49:44;;;;;;;8.55;5.93;;;14.10;99.90;;;;;;5074485;28;20490;-50
2023/09/26 03:52:10;;;;;;;7.97;6.30;;;14.10;99.90;;;;;;5074236;28;20120;-52
2023/09/26 03:54:37;;;;;;;6.55;5.85;;;14.00;99.90;;;;;;5079177;28;20032;-52
2023/09/26 03:57:04;;;;;;;6.90;6.20;;;14.00;99.90;;;;;;5094649;28;20051;-48
2023/09/26 03:59:30;;;;;;;6.78;5.68;;;14.00;99.90;;;;;;5094564;28;20523;-48
2023/09/26 04:01:56;;;;;;;9.13;6.00;;;13.90;99.90;;;;;;5094401;28;20048;-50
2023/09/26 04:04:21;;;;;;;9.85;6.35;;;13.90;99.90;;;;;;5094323;28;20032;-50
2023/09/26 04:06:47;;;;;;;6.68;5.88;;;13.90;99.90;;;;;;5094277;28;20040;-50
2023/09/26 04:09:14;;;;;;;11.48;6.50;;;13.80;99.90;;;;;;5094099;28;20072;-51
2023/09/26 04:11:39;;;;;;;7.90;6.63;;;13.80;99.90;;;;;;5094532;28;20075;-46
2023/09/26 04:14:05;;;;;;;9.13;6.32;;;13.80;99.90;;;;;;5080036;28;20138;-51
2023/09/26 04:16:31;;;;;;;6.38;5.68;;;13.80;99.90;;;;;;5094305;28;20044;-48
2023/09/26 04:18:57;;;;;;;7.40;6.03;;;13.70;99.90;;;;;;5080319;28;20048;-48
2023/09/26 04:21:22;;;;;;;7.60;6.80;;;13.70;99.90;;;;;;5094029;28;20048;-51
2023/09/26 04:23:48;;;;;;;9.88;7.03;;;13.60;99.90;;;;;;5094034;28;20044;-50
2023/09/26 04:26:15;;;;;;;10.25;7.20;;;13.70;99.90;;;;;;5075861;28;20048;-49
2023/09/26 04:28:45;;;;;;;11.70;7.03;;;13.60;99.90;;;;;;5078992;28;20529;-48
2023/09/26 04:31:13;;;;;;;8.55;7.30;;;13.70;99.90;;;;;;5094286;28;20382;-47
2023/09/26 04:33:39;;;;;;;10.00;7.15;;;13.70;99.90;;;;;;5092720;28;20081;-49
2023/09/26 04:36:04;;;;;;;17.65;7.43;;;13.70;99.90;;;;;;5093842;28;20115;-48
2023/09/26 04:38:30;;;;;;;10.27;7.03;;;13.70;99.90;;;;;;5093993;28;20466;-48
2023/09/26 04:40:56;;;;;;;10.25;6.97;;;13.80;99.90;;;;;;5090582;28;20051;-50
2023/09/26 04:43:21;;;;;;;8.88;7.60;;;13.80;99.90;;;;;;5085394;28;20518;-49
2023/09/26 04:45:47;;;;;;;8.60;6.32;;;13.80;99.90;;;;;;5091810;28;20075;-50
2023/09/26 04:48:13;;;;;;;9.52;7.18;;;13.90;99.90;;;;;;5083135;28;20044;-52
2023/09/26 04:50:39;;;;;;;10.60;6.85;;;13.90;99.90;;;;;;5093369;28;20367;-51
2023/09/26 04:53:05;;;;;;;10.65;7.55;;;13.90;99.90;;;;;;5093370;28;20049;-49
2023/09/26 04:55:30;;;;;;;8.40;7.22;;;14.00;99.90;;;;;;5093552;28;20473;-52
2023/09/26 04:57:56;;;;;;;9.57;7.45;;;14.00;99.90;;;;;;5093320;28;20077;-49
2023/09/26 05:00:22;;;;;;;8.77;7.35;;;14.00;99.90;;;;;;5093562;28;20085;-49
2023/09/26 05:02:50;;;;;;;12.32;7.90;;;14.10;99.90;;;;;;5093235;28;20089;-49
2023/09/26 05:05:16;;;;;;;10.80;7.60;;;14.10;99.90;;;;;;5093197;28;20032;-49
2023/09/26 05:07:43;;;;;;;9.25;7.40;;;14.10;99.90;;;;;;5093298;28;20453;-50
2023/09/26 05:10:10;;;;;;;9.70;7.05;;;14.10;99.90;;;;;;5093118;28;20036;-47
2023/09/26 05:12:40;;;;;;;8.65;7.05;;;14.10;99.90;;;;;;5087250;28;20028;-48
2023/09/26 05:15:13;;;;;;;7.63;6.82;;;14.20;99.90;;;;;;5090726;28;20032;-47
2023/09/26 05:17:40;;;;;;;11.15;7.32;;;14.20;99.90;;;;;;5088053;28;20043;-50
2023/09/26 05:20:08;;;;;;;8.73;6.90;;;14.30;99.90;;;;;;5089844;28;20044;-49
2023/09/26 05:22:34;;;;;;;10.70;7.10;;;14.20;99.90;;;;;;5092969;28;20051;-51
2023/09/26 05:24:59;;;;;;;7.68;6.78;;;14.30;99.90;;;;;;5092164;28;20448;-47
2023/09/26 05:27:25;;;;;;;9.63;6.88;;;14.30;99.90;;;;;;5091387;28;20047;-50
2023/09/26 05:29:50;;;;;;;11.25;6.60;;;14.30;99.90;;;;;;5092916;28;20367;-48
2023/09/26 05:32:16;;;;;;;13.85;7.95;;;14.30;99.90;;;;;;5092481;28;20457;-48
2023/09/26 05:34:42;;;;;;;11.70;6.80;;;14.40;99.90;;;;;;5092451;28;20046;-47
2023/09/26 05:37:09;;;;;;;8.65;6.97;;;14.30;99.90;;;;;;5092832;28;20109;-48
2023/09/26 05:39:35;;;;;;;10.02;6.60;;;14.30;99.90;;;;;;5092688;28;20048;-51
2023/09/26 05:42:01;;;;;;;9.75;7.28;;;14.20;99.90;;;;;;5092382;28;20044;-49
2023/09/26 05:44:27;;;;;;;10.23;6.75;;;14.20;99.90;;;;;;5083841;28;20390;-49
2023/09/26 05:46:52;;;;;;;8.13;7.07;;;14.30;99.90;;;;;;5092089;28;20036;-49
2023/09/26 05:49:18;;;;;;;8.57;6.18;;;14.30;99.90;;;;;;5084425;28;20040;-49
2023/09/26 05:51:44;;;;;;;8.98;6.85;;;14.30;99.90;;;;;;5092405;28;20039;-49
2023/09/26 05:54:09;;;;;;;11.32;6.68;;;14.30;99.90;;;;;;5092575;28;20031;-48
2023/09/26 05:56:35;;;;;;;10.68;6.30;;;14.30;99.90;;;;;;5092394;28;20036;-49
2023/09/26 05:59:01;;;;;;;11.55;6.60;;;14.30;99.90;;;;;;5092257;28;20093;-47
2023/09/26 06:01:26;;;;;;;11.27;6.47;;;14.30;99.90;;;;;;5092560;28;20108;-46
2023/09/26 06:03:52;;;;;;;9.85;6.95;;;14.30;99.90;;;;;;5090889;28;20076;-46
2023/09/26 06:06:18;;;;;;;10.60;7.35;;;14.20;99.90;;;;;;5092162;28;20047;-48
2023/09/26 06:08:44;;;;;;;8.88;6.28;;;14.30;99.90;;;;;;5090965;28;20092;-51
2023/09/26 06:11:10;;;;;;;7.78;6.25;;;14.30;99.90;;;;;;5091860;28;20081;-47
2023/09/26 06:13:36;;;;;;;12.80;7.35;;;14.30;99.90;;;;;;5079886;28;20037;-48
2023/09/26 06:16:05;;;;;;;9.00;6.50;;;14.30;99.90;;;;;;5090774;28;20040;-51
2023/09/26 06:18:31;;;;;;;9.70;6.45;;;14.30;99.90;;;;;;5079215;28;20558;-47
2023/09/26 06:20:57;;;;;;;7.95;6.50;;;14.30;99.90;;;;;;5090380;28;20071;-47
2023/09/26 06:23:23;;;;;;;9.25;6.18;;;14.30;99.90;;;;;;5091989;28;20082;-47
2023/09/26 06:25:59;;;;;;;9.93;6.40;;;14.40;99.90;;;;;;5076694;28;20496;-49
2023/09/26 06:28:26;;;;;;;8.63;6.40;;;14.40;99.90;;;;;;5071390;28;20028;-49
2023/09/26 06:30:52;;;;;;;10.73;7.03;;;14.40;99.90;;;;;;5070776;28;20119;-50
2023/09/26 06:33:17;;;;;;;11.45;6.95;;;14.50;99.90;;;;;;5071570;28;20112;-52
2023/09/26 06:35:43;;;;;;;8.35;6.40;;;14.60;99.90;;;;;;5071463;28;20101;-49
2023/09/26 06:38:09;;;;;;;8.20;7.05;;;14.60;99.90;;;;;;5071317;28;20032;-48
2023/09/26 06:40:35;;;;;;;8.13;6.82;;;14.70;99.90;;;;;;5071434;28;20505;-48
2023/09/26 06:43:02;;;;;;;11.32;7.18;;;14.70;99.90;;;;;;5071604;28;20197;-50
2023/09/26 06:45:29;;;;;;;8.93;6.85;;;14.60;99.90;;;;;;5071827;28;20479;-49
2023/09/26 06:47:55;;;;;;;11.15;7.38;;;14.70;99.90;;;;;;5071199;28;20412;-52
2023/09/26 06:50:21;;;;;;;11.93;7.43;;;14.70;99.90;;;;;;5071468;28;20127;-49
2023/09/26 06:52:47;;;;;;;9.25;6.68;;;14.70;99.90;;;;;;5071428;28;20055;-49
2023/09/26 06:55:13;;;;;;;10.93;6.97;;;14.80;99.90;;;;;;5070130;28;20029;-49
2023/09/26 06:57:40;;;;;;;10.93;7.03;;;14.80;99.90;;;;;;5091518;28;20029;-48
2023/09/26 07:00:16;;;;;;;8.55;7.43;;;14.80;99.90;;;;;;5091338;28;20127;-48
2023/09/26 07:02:43;;;;;;;9.00;7.18;;;14.90;99.90;;;;;;5091286;28;20040;-48
2023/09/26 07:05:09;;;;;;;10.50;6.88;;;15.00;99.90;;;;;;5091335;28;20555;-50
2023/09/26 07:07:35;;;;;;;9.25;7.40;;;15.10;99.90;;;;;;5091375;28;20086;-48
2023/09/26 07:10:04;;;;;;;11.88;7.07;;;15.10;99.90;;;;;;5091139;28;20043;-48
2023/09/26 07:12:30;;;;;;;9.05;7.20;;;15.20;99.90;;;;;;5090263;28;20095;-48
2023/09/26 07:14:56;;;;;;;10.45;6.93;;;15.20;99.90;;;;;;5091290;28;20075;-49
2023/09/26 07:17:24;;;;;;;9.50;7.25;;;15.30;99.90;;;;;;5089607;28;20032;-49
2023/09/26 07:19:50;;;;;;;10.45;7.00;;;15.40;99.90;;;;;;5083740;28;20119;-49
2023/09/26 07:22:16;;;;;;;12.52;7.45;;;15.50;99.90;;;;;;5090946;28;20131;-48
2023/09/26 07:24:41;;;;;;;10.30;6.00;;;15.70;99.90;;;;;;5085579;28;20123;-48
2023/09/26 07:27:07;;;;;;;8.30;6.45;;;15.70;99.90;;;;;;5071307;28;20399;-51
2023/09/26 07:29:35;;;;;;;9.30;6.38;;;15.90;99.90;;;;;;5070883;28;20032;-50
2023/09/26 07:32:00;;;;;;;11.30;6.75;;;16.00;99.90;;;;;;5071165;28;20071;-47
2023/09/26 07:34:26;;;;;;;9.95;6.13;;;16.00;99.90;;;;;;5070933;28;20083;-51
2023/09/26 07:36:51;;;;;;;9.18;6.45;;;16.10;99.90;;;;;;5071247;28;20048;-49
2023/09/26 07:39:17;;;;;;;8.60;6.38;;;16.10;99.90;;;;;;5070966;28;20044;-51
2023/09/26 07:41:43;;;;;;;8.98;6.30;;;16.10;99.90;;;;;;5073339;28;20036;-50
2023/09/26 07:44:09;;;;;;;10.23;6.50;;;16.10;99.90;;;;;;5074515;28;20033;-47
2023/09/26 07:46:34;;;;;;;8.10;6.57;;;16.20;99.90;;;;;;5074375;28;20390;-48
2023/09/26 07:49:00;;;;;;;9.73;6.50;;;16.20;99.90;;;;;;5074432;28;20040;-50
2023/09/26 07:51:26;;;;;;;9.52;6.55;;;16.30;99.90;;;;;;5074286;28;20390;-50
2023/09/26 07:53:51;;;;;;;9.23;6.32;;;16.40;99.90;;;;;;5074845;28;20386;-50
2023/09/26 07:56:18;;;;;;;10.48;6.15;;;16.50;99.90;;;;;;5074467;28;20524;-52
2023/09/26 07:58:44;;;;;;;8.80;6.10;;;16.50;99.90;;;;;;5086656;28;20097;-52
2023/09/26 08:01:09;;;;;;;7.88;5.70;;;16.70;99.90;;;;;;5094538;28;20032;-51
2023/09/26 08:03:39;;;;;;;7.13;5.43;;;16.80;99.90;;;;;;5094369;28;20035;-50
2023/09/26 08:06:06;;;;;;;6.47;5.65;;;16.90;99.90;;;;;;5094675;28;20106;-48
2023/09/26 08:08:33;;;;;;;6.72;5.40;;;16.90;99.90;;;;;;5094336;28;20036;-51
2023/09/26 08:11:07;;;;;;;9.00;5.80;;;17.00;99.90;;;;;;5094610;28;20115;-51
2023/09/26 08:13:34;;;;;;;7.47;6.38;;;17.10;99.90;;;;;;5084982;28;20090;-50
2023/09/26 08:16:00;;;;;;;9.30;5.47;;;17.20;99.90;;;;;;5094328;28;20426;-49
2023/09/26 08:18:25;;;;;;;8.40;5.82;;;17.20;99.90;;;;;;5085638;28;20142;-46
2023/09/26 08:20:57;;;;;;;9.73;5.95;;;17.30;99.90;;;;;;5094006;28;20133;-52
2023/09/26 08:23:26;;;;;;;10.45;6.45;;;17.30;99.90;;;;;;5093866;28;20055;-48
2023/09/26 08:26:02;;;;;;;8.05;5.68;;;17.30;99.90;;;;;;5083578;28;20048;-47
2023/09/26 08:28:29;;;;;;;11.27;6.30;;;17.40;99.90;;;;;;5092504;28;20051;-49
2023/09/26 08:30:56;;;;;;;13.38;5.88;;;17.40;99.90;;;;;;5093868;28;20028;-49
2023/09/26 08:33:26;;;;;;;10.57;6.47;;;17.40;99.90;;;;;;5093636;28;20032;-48
2023/09/26 08:35:52;;;;;;;8.32;5.35;;;17.40;99.90;;;;;;5093925;28;20055;-50
2023/09/26 08:38:18;;;;;;;9.35;6.20;;;17.40;99.90;;;;;;5094319;28;20156;-51
2023/09/26 08:40:45;;;;;;;8.55;5.47;;;17.40;99.90;;;;;;5094049;28;20036;-48
2023/09/26 08:43:14;;;;;;;10.43;5.75;;;17.30;99.90;;;;;;5092150;28;20086;-46
2023/09/26 08:45:40;;;;;;;8.32;5.75;;;17.30;99.90;;;;;;5093832;28;20561;-49
2023/09/26 08:48:07;;;;;;;8.35;5.80;;;17.30;99.90;;;;;;5090965;28;20032;-48
2023/09/26 08:50:33;;;;;;;8.20;5.80;;;17.30;99.90;;;;;;5093763;28;20044;-50
2023/09/26 08:53:01;;;;;;;9.95;5.95;;;17.40;99.90;;;;;;5091597;28;20359;-48
2023/09/26 08:55:27;;;;;;;8.18;5.60;;;17.40;99.90;;;;;;5093787;28;20158;-49
2023/09/26 08:57:55;;;;;;;9.23;5.95;;;17.40;99.90;;;;;;5093941;28;20366;-49
2023/09/26 09:00:22;;;;;;;9.47;5.53;;;17.40;99.90;;;;;;5093751;28;20040;-48
2023/09/26 09:02:49;;;;;;;7.80;5.70;;;17.40;99.90;;;;;;5093575;28;20080;-49
2023/09/26 09:05:19;;;;;;;10.65;6.28;;;17.50;99.90;;;;;;5093632;28;20040;-51
2023/09/26 09:07:46;;;;;;;9.20;5.18;;;17.50;99.90;;;;;;5092808;28;20093;-52
2023/09/26 09:10:13;;;;;;;10.85;6.88;;;17.70;99.90;;;;;;5093097;28;20063;-51
2023/09/26 09:12:41;;;;;;;10.20;4.90;;;17.90;99.90;;;;;;5090958;28;20036;-46
2023/09/26 09:15:15;;;;;;;10.30;5.50;;;18.00;99.90;;;;;;5093115;28;20090;-50
2023/09/26 09:17:51;;;;;;;8.32;6.15;;;18.10;99.90;;;;;;5092877;28;20032;-47
2023/09/26 09:20:34;;;;;;;12.77;6.35;;;18.30;99.90;;;;;;5093291;28;20078;-47
2023/09/26 09:23:04;;;;;;;10.85;6.18;;;18.40;99.90;;;;;;5092923;28;20040;-48
2023/09/26 09:25:35;;;;;;;10.98;6.57;;;18.50;99.90;;;;;;5081259;28;20120;-49
2023/09/26 09:28:02;;;;;;;8.93;6.18;;;18.60;99.90;;;;;;5072409;28;20058;-52
2023/09/26 09:30:28;;;;;;;12.75;6.18;;;18.60;99.90;;;;;;5081974;28;20371;-47
2023/09/26 09:32:55;;;;;;;10.93;6.25;;;18.60;99.90;;;;;;5093145;28;20490;-50
2023/09/26 09:35:22;;;;;;;12.02;5.57;;;18.50;99.90;;;;;;5091938;28;20044;-49
2023/09/26 09:37:49;;;;;;;12.82;6.20;;;18.50;99.90;;;;;;5093181;28;20047;-50
2023/09/26 09:40:23;;;;;;;15.50;6.20;;;18.50;99.90;;;;;;5092532;28;20159;-50
2023/09/26 09:42:49;;;;;;;11.95;5.88;;;18.50;99.90;;;;;;5092783;28;20051;-49
2023/09/26 09:45:16;;;;;;;8.70;5.75;;;18.50;99.90;;;;;;5092266;28;20493;-49
2023/09/26 09:47:45;;;;;;;8.30;4.80;;;18.60;99.90;;;;;;5092421;28;20048;-49
2023/09/26 09:50:12;;;;;;;8.80;4.95;;;18.80;99.90;;;;;;5092260;28;20203;-49
2023/09/26 09:52:41;;;;;;;10.38;6.13;;;18.80;99.90;;;;;;5092182;28;20036;-50
2023/09/26 09:55:08;;;;;;;;;;;18.90;99.90;;;;;;5092934;28;20036;-52
2023/09/26 09:57:39;;;;;;;11.40;5.32;;;19.00;99.90;;;;;;5090849;28;19916;-51
2023/09/26 10:00:07;;;;;;;10.63;5.82;;;19.10;99.90;;;;;;5092483;28;20036;-52
2023/09/26 10:02:34;;;;;;;12.73;5.65;;;19.20;99.90;;;;;;5092120;28;20039;-48
2023/09/26 10:05:05;;;;;;;11.80;5.75;;;19.20;99.90;;;;;;5092140;28;20390;-48
2023/09/26 10:07:31;;;;;;;12.48;5.63;;;19.10;99.90;;;;;;5091925;28;20043;-50
2023/09/26 10:09:57;;;;;;;8.70;5.50;;;19.20;99.90;;;;;;5092224;28;20378;-51
2023/09/26 10:12:25;;;;;;;11.68;5.80;;;19.20;99.90;;;;;;5092081;28;20028;-46
2023/09/26 10:14:50;;;;;;;9.15;6.28;;;19.30;99.90;;;;;;5091887;28;20051;-49
2023/09/26 10:17:19;;;;;;;10.30;5.68;;;19.30;99.90;;;;;;5092039;28;20044;-48
2023/09/26 10:19:44;;;;;;;9.73;5.85;;;19.30;99.90;;;;;;5091824;28;20040;-48
2023/09/26 10:22:20;;;;;;;10.10;5.82;;;19.40;99.90;;;;;;5091738;28;20161;-49
2023/09/26 10:24:47;;;;;;;10.35;5.40;;;19.40;99.90;;;;;;5085856;28;20154;-49
2023/09/26 10:27:21;;;;;;;11.90;5.90;;;19.40;99.90;;;;;;5078580;28;20036;-48
2023/09/26 10:29:47;;;;;;;9.50;5.28;;;19.50;99.90;;;;;;5091681;28;20073;-47
2023/09/26 10:32:22;;;;;;;14.88;5.75;;;19.40;99.90;;;;;;5090595;28;20047;-47
2023/09/26 10:34:47;;;;;;;8.25;4.72;;;19.50;99.90;;;;;;5077815;28;20043;-48
2023/09/26 10:37:19;;;;;;;9.82;4.75;;;19.60;99.90;;;;;;5091368;28;20032;-48
2023/09/26 10:39:45;;;;;;;10.93;5.00;;;19.80;99.90;;;;;;5091922;28;20044;-51
2023/09/26 10:42:16;;;;;;;8.27;4.53;;;19.70;99.90;;;;;;5091923;28;20431;-50
2023/09/26 10:44:46;;;;;;;9.35;4.72;;;19.70;99.90;;;;;;5082035;28;20049;-49
2023/09/26 10:47:12;;;;;;;8.30;4.72;;;19.70;99.90;;;;;;5091426;28;20494;-52
2023/09/26 10:49:38;;;;;;;9.93;4.40;;;19.70;99.90;;;;;;5080983;28;20040;-53
2023/09/26 10:52:08;;;;;;;10.05;4.13;;;19.70;99.90;;;;;;5089729;28;20052;-53
2023/09/26 10:54:35;;;;;;;7.05;3.58;;;19.80;99.90;;;;;;5080523;28;20036;-49
2023/09/26 10:57:01;;;;;;;8.68;3.92;;;19.90;99.90;;;;;;5091425;28;20557;-51
2023/09/26 10:59:31;;;;;;;8.57;4.10;;;19.90;99.90;;;;;;5091253;28;20040;-52
2023/09/26 11:01:58;;;;;;;8.65;3.83;;;19.90;99.90;;;;;;5091479;28;20429;-52
2023/09/26 11:04:30;;;;;;;8.88;4.75;;;19.90;99.90;;;;;;5091507;28;20062;-53
2023/09/26 11:06:57;;;;;;;5.85;3.65;;;20.00;99.90;;;;;;5091514;28;20046;-50
2023/09/26 11:09:24;;;;;;;10.05;4.20;;;20.00;99.90;;;;;;5091455;28;20036;-48
2023/09/26 11:11:50;;;;;;;6.22;4.05;;;20.00;99.90;;;;;;5091240;28;20120;-48
2023/09/26 11:14:16;;;;;;;6.22;4.28;;;20.10;99.90;;;;;;5089569;28;20099;-50
2023/09/26 11:16:42;;;;;;;7.18;4.10;;;20.10;99.90;;;;;;5094045;28;20085;-51
2023/09/26 11:19:09;;;;;;;8.05;4.60;;;20.10;99.90;;;;;;5093337;28;20039;-50
2023/09/26 11:21:35;;;;;;;6.85;4.35;;;20.10;99.90;;;;;;5094945;28;20413;-50
2023/09/26 11:24:21;;;;;;;6.65;4.72;;;20.10;99.90;;;;;;5094243;28;20052;-50
2023/09/26 11:26:48;;;;;;;9.88;4.85;;;20.00;99.90;;;;;;5063413;28;20040;-51
2023/09/26 11:29:16;;;;;;;8.98;5.15;;;20.10;99.90;;;;;;5081147;28;20436;-48
2023/09/26 11:31:43;;;;;;;7.13;4.85;;;20.10;99.90;;;;;;5094929;28;20107;-48
2023/09/26 11:34:09;;;;;;;6.82;4.57;;;20.00;99.90;;;;;;5095110;28;20119;-48
2023/09/26 11:36:34;;;;;;;8.38;4.57;;;20.10;99.90;;;;;;5094861;28;20078;-52
2023/09/26 11:39:00;;;;;;;9.98;4.47;;;20.10;99.90;;;;;;5094817;28;20067;-51
2023/09/26 11:41:26;;;;;;;5.57;4.10;;;20.10;99.90;;;;;;5094681;28;20036;-51
2023/09/26 11:43:52;;;;;;;8.55;3.88;;;20.10;99.90;;;;;;5089248;28;20043;-51
2023/09/26 11:46:19;;;;;;;7.47;3.47;;;20.10;99.90;;;;;;5095060;28;20114;-49
2023/09/26 11:48:47;;;;;;;4.10;2.95;;;20.20;99.90;;;;;;5088543;28;20040;-47
2023/09/26 11:51:14;;;;;;;6.88;3.38;;;20.20;99.90;;;;;;5094681;28;20474;-51
2023/09/26 11:53:40;;;;;;;6.07;2.72;;;20.20;99.90;;;;;;5094549;28;20028;-50
2023/09/26 11:56:07;;;;;;;4.90;2.95;;;20.20;99.90;;;;;;5094888;28;20036;-52
2023/09/26 11:58:34;;;;;;;4.03;3.05;;;20.30;99.90;;;;;;5094381;28;20569;-50
2023/09/26 12:01:00;;;;;;;5.93;3.00;;;20.30;99.90;;;;;;5094498;28;20093;-48
2023/09/26 12:03:26;;;;;;;5.00;3.30;;;20.30;99.90;;;;;;5094496;28;20107;-53
2023/09/26 12:05:52;;;;;;;6.90;4.32;;;20.40;99.90;;;;;;5094462;28;20653;-53
2023/09/26 12:08:17;;;;;;;6.80;3.63;;;20.50;99.90;;;;;;5094472;28;20772;-50
2023/09/26 12:10:44;;;;;;;8.35;3.90;;;20.50;99.90;;;;;;5094357;28;20044;-50
2023/09/26 12:13:10;;;;;;;4.95;3.40;;;20.60;99.90;;;;;;5085506;28;20547;-50
2023/09/26 12:15:36;;;;;;;5.50;3.13;;;20.70;99.90;;;;;;5093930;28;20153;-46
2023/09/26 12:18:02;;;;;;;5.60;3.60;;;20.70;99.90;;;;;;5094091;28;20032;-51
2023/09/26 12:20:29;;;;;;;8.48;4.38;;;20.70;99.90;;;;;;5093951;28;20051;-49
2023/09/26 12:22:56;;;;;;;6.20;3.47;;;20.70;99.90;;;;;;5094234;28;20036;-52
2023/09/26 12:25:23;;;;;;;5.40;3.22;;;20.70;99.90;;;;;;5083039;28;20063;-51
2023/09/26 12:27:50;;;;;;;4.93;3.38;;;20.80;99.90;;;;;;5072361;28;20066;-49
2023/09/26 12:30:16;;;;;;;8.48;3.60;;;20.80;99.90;;;;;;5073589;28;20422;-51
2023/09/26 12:32:42;;;;;;;7.45;3.35;;;20.90;99.90;;;;;;5073609;28;20032;-51
2023/09/26 12:35:08;;;;;;;7.57;4.43;;;20.90;99.90;;;;;;5073491;28;20035;-50
2023/09/26 12:37:34;;;;;;;6.68;3.70;;;20.90;99.90;;;;;;5073597;28;20036;-50
2023/09/26 12:39:59;;;;;;;5.10;3.63;;;20.90;99.90;;;;;;5073480;28;20090;-50
2023/09/26 12:42:25;;;;;;;4.75;3.65;;;20.90;99.90;;;;;;5073570;28;20040;-52
2023/09/26 12:44:51;;;;;;;6.93;3.80;;;20.90;99.90;;;;;;5073408;28;20189;-53